createdAt,value
2023-03-27T00:00:08.805Z,13.80
2023-03-27T00:05:10.494Z,10.68
2023-03-27T00:10:12.609Z,13.25
2023-03-27T00:15:18.255Z,12.68
2023-03-27T00:20:22.526Z,13.82
2023-03-27T00:25:26.700Z,14.52
2023-03-27T00:30:30.189Z,17.17
2023-03-27T00:35:32.369Z,13.30
2023-03-27T00:40:34.000Z,14.77
2023-03-27T00:45:37.908Z,14.77
2023-03-27T00:50:43.057Z,14.10
2023-03-27T00:55:48.938Z,16.95
2023-03-27T01:00:54.238Z,16.40
2023-03-27T01:05:57.765Z,14.15
2023-03-27T01:11:08.780Z,16.65
2023-03-27T01:16:27.996Z,10.60
2023-03-27T01:21:35.575Z,15.95
2023-03-27T01:26:43.137Z,13.43
2023-03-27T01:32:22.120Z,10.55
2023-03-27T01:37:42.536Z,14.93
2023-03-27T01:43:06.086Z,13.32
2023-03-27T01:48:21.287Z,18.38
2023-03-27T01:53:34.959Z,14.10
2023-03-27T01:58:46.375Z,15.35
2023-03-27T02:03:56.108Z,14.88
2023-03-27T02:08:59.664Z,16.77
2023-03-27T02:14:05.728Z,15.07
2023-03-27T02:19:14.977Z,13.57
2023-03-27T02:24:17.903Z,15.98
2023-03-27T02:29:28.541Z,17.33
2023-03-27T02:34:46.369Z,11.90
2023-03-27T02:40:00.678Z,13.85
2023-03-27T02:45:08.229Z,14.02
2023-03-27T02:50:16.433Z,15.13
2023-03-27T02:55:22.602Z,16.48
2023-03-27T03:00:29.414Z,16.55
2023-03-27T03:05:32.658Z,15.00
2023-03-27T03:10:34.382Z,17.88
2023-03-27T03:15:36.043Z,15.02
2023-03-27T03:20:38.175Z,12.68
2023-03-27T03:25:39.816Z,17.33
2023-03-27T03:30:45.621Z,9.63
2023-03-27T03:35:51.086Z,18.30
2023-03-27T03:40:57.720Z,16.17
2023-03-27T03:46:00.364Z,12.13
2023-03-27T03:51:02.136Z,16.15
2023-03-27T03:56:04.021Z,15.43
2023-03-27T04:01:05.675Z,13.60
2023-03-27T04:06:07.774Z,13.70
2023-03-27T04:11:09.413Z,19.27
2023-03-27T04:16:11.090Z,16.20
2023-03-27T04:21:15.865Z,18.35
2023-03-27T04:26:17.678Z,12.73
2023-03-27T04:31:19.418Z,13.60
2023-03-27T04:36:21.128Z,17.00
2023-03-27T04:41:22.760Z,20.95
2023-03-27T04:46:24.404Z,45.30
2023-03-27T04:51:26.744Z,28.67
2023-03-27T04:56:30.837Z,15.55
2023-03-27T05:01:33.963Z,17.05
2023-03-27T05:06:35.780Z,17.33
2023-03-27T05:11:37.402Z,15.38
2023-03-27T05:16:40.470Z,19.05
2023-03-27T05:21:42.654Z,16.85
2023-03-27T05:26:44.331Z,16.77
2023-03-27T05:31:45.952Z,15.23
2023-03-27T05:36:47.613Z,15.40
2023-03-27T05:41:49.224Z,23.13
2023-03-27T05:46:50.898Z,22.17
2023-03-27T05:51:52.745Z,19.60
2023-03-27T05:56:54.383Z,19.90
2023-03-27T06:01:58.511Z,22.10
2023-03-27T06:07:02.526Z,19.63
2023-03-27T06:12:04.268Z,17.27
2023-03-27T06:17:06.519Z,16.35
2023-03-27T06:22:08.142Z,21.88
2023-03-27T06:27:10.966Z,16.75
2023-03-27T06:32:12.692Z,19.70
2023-03-27T06:37:14.443Z,17.00
2023-03-27T06:42:16.203Z,18.58
2023-03-27T06:47:18.918Z,18.45
2023-03-27T06:52:20.547Z,17.15
2023-03-27T06:57:22.215Z,16.45
2023-03-27T07:02:24.078Z,18.85
2023-03-27T07:07:26.241Z,16.73
2023-03-27T07:12:27.890Z,19.38
2023-03-27T07:17:41.869Z,17.60
2023-03-27T07:22:50.356Z,13.35
2023-03-27T07:27:52.070Z,19.67
2023-03-27T07:32:54.217Z,15.45
2023-03-27T07:37:56.297Z,15.93
2023-03-27T07:42:57.887Z,16.50
2023-03-27T07:48:12.271Z,15.70
2023-03-27T07:53:33.450Z,16.25
2023-03-27T07:58:36.520Z,14.45
2023-03-27T08:03:39.601Z,19.40
2023-03-27T08:08:41.460Z,18.02
2023-03-27T08:13:43.097Z,15.40
2023-03-27T08:18:46.864Z,12.82
2023-03-27T08:23:48.812Z,14.27
2023-03-27T08:28:54.169Z,15.52
2023-03-27T08:33:56.157Z,10.52
2023-03-27T08:38:57.815Z,12.07
2023-03-27T08:44:03.860Z,14.38
2023-03-27T08:49:12.195Z,12.27
2023-03-27T08:54:25.535Z,16.63
2023-03-27T08:59:30.305Z,14.63
2023-03-27T09:04:31.949Z,13.98
2023-03-27T09:09:42.538Z,10.90
2023-03-27T09:14:48.647Z,13.63
2023-03-27T09:19:59.190Z,10.93
2023-03-27T09:25:08.438Z,11.20
2023-03-27T09:30:15.070Z,7.25
2023-03-27T09:35:20.417Z,9.48
2023-03-27T09:41:00.769Z,9.32
2023-03-27T09:46:03.358Z,11.40
2023-03-27T09:51:05.934Z,8.52
2023-03-27T09:56:14.488Z,10.82
2023-03-27T10:01:20.031Z,6.25
2023-03-27T10:06:39.623Z,7.97
2023-03-27T10:11:41.430Z,6.78
2023-03-27T10:16:46.154Z,7.15
2023-03-27T10:21:48.067Z,10.57
2023-03-27T10:26:52.948Z,6.13
2023-03-27T10:31:57.106Z,5.95
2023-03-27T10:37:01.850Z,5.25
2023-03-27T10:42:08.932Z,7.55
2023-03-27T10:47:23.962Z,6.63
2023-03-27T10:52:34.026Z,6.53
2023-03-27T10:57:37.327Z,8.80
2023-03-27T11:03:02.448Z,5.85
2023-03-27T11:08:12.288Z,5.03
2023-03-27T11:13:19.722Z,5.13
2023-03-27T11:18:25.010Z,7.20
2023-03-27T11:23:49.555Z,5.15
2023-03-27T11:28:57.665Z,9.10
2023-03-27T11:34:07.569Z,6.00
2023-03-27T11:39:15.449Z,6.53
2023-03-27T11:44:17.165Z,7.55
2023-03-27T11:49:30.872Z,7.63
2023-03-27T11:55:06.548Z,8.10
2023-03-27T12:00:25.601Z,8.98
2023-03-27T12:05:37.608Z,5.85
2023-03-27T12:10:44.016Z,5.65
2023-03-27T12:16:11.455Z,7.65
2023-03-27T12:21:13.746Z,4.25
2023-03-27T12:26:15.308Z,9.30
2023-03-27T12:31:23.658Z,9.80
2023-03-27T12:36:31.021Z,3.83
2023-03-27T12:41:37.681Z,4.45
2023-03-27T12:46:40.851Z,6.68
2023-03-27T12:52:04.422Z,5.03
2023-03-27T12:57:20.733Z,8.20
2023-03-27T13:02:34.641Z,5.90
2023-03-27T13:07:39.276Z,6.95
2023-03-27T13:12:59.518Z,5.35
2023-03-27T13:18:19.932Z,5.88
2023-03-27T13:23:33.081Z,5.83
2023-03-27T13:28:40.233Z,5.60
2023-03-27T13:34:08.533Z,6.90
2023-03-27T13:39:21.194Z,8.48
2023-03-27T13:44:35.543Z,6.35
2023-03-27T13:49:43.218Z,8.48
2023-03-27T13:55:06.042Z,6.30
2023-03-27T14:00:22.888Z,5.43
2023-03-27T14:05:48.191Z,9.13
2023-03-27T14:11:09.941Z,8.77
2023-03-27T14:16:28.199Z,6.75
2023-03-27T14:21:49.652Z,3.40
2023-03-27T14:26:53.871Z,4.13
2023-03-27T14:32:02.303Z,3.78
2023-03-27T14:37:31.118Z,2.90
2023-03-27T14:42:33.680Z,4.10
2023-03-27T14:47:36.193Z,2.28
2023-03-27T14:52:38.331Z,4.13
2023-03-27T14:57:41.358Z,3.90
2023-03-27T15:02:44.165Z,2.33
2023-03-27T15:07:49.014Z,3.05
2023-03-27T15:12:51.169Z,3.47
2023-03-27T15:17:55.060Z,5.10
2023-03-27T15:23:03.542Z,3.22
2023-03-27T15:28:10.803Z,2.88
2023-03-27T15:33:22.116Z,2.85
2023-03-27T15:38:29.058Z,2.10
2023-03-27T15:43:31.428Z,3.78
2023-03-27T15:48:40.716Z,2.60
2023-03-27T15:53:47.650Z,2.83
2023-03-27T15:58:55.660Z,2.15
2023-03-27T16:04:02.421Z,4.75
2023-03-27T16:09:21.410Z,5.47
2023-03-27T16:14:35.661Z,3.88
2023-03-27T16:19:58.313Z,4.55
2023-03-27T16:25:01.953Z,4.18
2023-03-27T16:30:06.800Z,5.78
2023-03-27T16:35:08.635Z,3.63
2023-03-27T16:40:11.543Z,4.22
2023-03-27T16:45:13.379Z,4.40
2023-03-27T16:50:20.398Z,4.70
2023-03-27T16:55:22.099Z,4.25
2023-03-27T17:00:23.908Z,3.72
2023-03-27T17:05:25.898Z,4.88
2023-03-27T17:10:29.054Z,3.42
2023-03-27T17:15:30.898Z,5.25
2023-03-27T17:20:32.719Z,4.45
2023-03-27T17:25:34.334Z,4.00
2023-03-27T17:30:41.033Z,3.47
2023-03-27T17:35:46.486Z,5.43
2023-03-27T17:40:48.126Z,4.95
2023-03-27T17:45:51.149Z,4.50
2023-03-27T17:51:07.497Z,5.47
2023-03-27T17:56:10.892Z,3.90
2023-03-27T18:01:15.787Z,6.00
2023-03-27T18:06:18.143Z,4.57
2023-03-27T18:11:19.861Z,6.18
2023-03-27T18:16:23.085Z,6.00
2023-03-27T18:21:24.940Z,7.45
2023-03-27T18:26:26.594Z,5.25
2023-03-27T18:31:28.289Z,5.82
2023-03-27T18:36:30.043Z,7.38
2023-03-27T18:41:31.677Z,6.38
2023-03-27T18:46:36.122Z,6.28
2023-03-27T18:51:37.887Z,7.80
2023-03-27T18:56:40.106Z,7.75
2023-03-27T19:01:41.738Z,7.70
2023-03-27T19:06:43.496Z,5.32
2023-03-27T19:11:45.128Z,5.32
2023-03-27T19:16:46.958Z,6.35
2023-03-27T19:21:49.587Z,6.57
2023-03-27T19:26:52.980Z,7.60
2023-03-27T19:31:54.748Z,7.47
2023-03-27T19:36:56.599Z,7.88
2023-03-27T19:41:58.595Z,5.45
2023-03-27T19:47:00.599Z,7.68
2023-03-27T19:52:02.675Z,7.13
2023-03-27T19:57:04.350Z,6.43
2023-03-27T20:02:06.756Z,5.20
2023-03-27T20:07:10.141Z,9.80
2023-03-27T20:12:12.559Z,7.65
2023-03-27T20:17:28.012Z,8.30
2023-03-27T20:22:31.233Z,6.30
2023-03-27T20:27:32.898Z,10.05
2023-03-27T20:32:38.945Z,11.93
2023-03-27T20:37:41.929Z,10.85
2023-03-27T20:42:47.137Z,12.52
2023-03-27T20:47:49.056Z,11.60
2023-03-27T20:52:50.852Z,7.68
2023-03-27T20:57:52.480Z,10.07
2023-03-27T21:02:54.195Z,7.88
2023-03-27T21:07:56.648Z,8.18
2023-03-27T21:12:58.926Z,8.00
2023-03-27T21:18:01.129Z,7.90
2023-03-27T21:23:02.980Z,7.53
2023-03-27T21:28:06.050Z,8.93
2023-03-27T21:33:08.132Z,10.27
2023-03-27T21:38:10.615Z,7.85
2023-03-27T21:43:13.201Z,8.27
2023-03-27T21:48:14.952Z,7.32
2023-03-27T21:53:19.529Z,9.25
2023-03-27T21:58:21.179Z,9.07
2023-03-27T22:03:23.587Z,10.55
2023-03-27T22:08:25.394Z,10.48
2023-03-27T22:13:27.526Z,10.77
2023-03-27T22:18:31.436Z,9.13
2023-03-27T22:23:33.102Z,10.57
2023-03-27T22:28:34.789Z,10.90
2023-03-27T22:33:37.438Z,7.68
2023-03-27T22:38:40.342Z,6.93
2023-03-27T22:43:42.342Z,10.32
2023-03-27T22:48:44.445Z,8.25
2023-03-27T22:53:46.473Z,8.63
2023-03-27T22:58:48.185Z,7.95
2023-03-27T23:03:49.880Z,11.05
2023-03-27T23:08:51.928Z,10.98
2023-03-27T23:13:53.566Z,15.02
2023-03-27T23:18:55.434Z,10.02
2023-03-27T23:23:57.203Z,11.18
2023-03-27T23:28:58.801Z,11.00
2023-03-27T23:34:00.483Z,8.90
2023-03-27T23:39:02.091Z,10.38
2023-03-27T23:44:03.741Z,9.73
2023-03-27T23:49:05.352Z,16.17
2023-03-27T23:54:06.959Z,13.73
2023-03-27T23:59:08.807Z,10.48
